sensor_id;sensor_type;location;lat;lon;timestamp;pressure;altitude;pressure_sealevel;temperature;humidity
37694;BME280;23531;50.122;8.644;2023-05-08T00:00:07;100899.97;;;16.80;nan
37694;BME280;23531;50.122;8.644;2023-05-08T00:02:09;100902.78;;;16.73;nan
37694;BME280;23531;50.122;8.644;2023-05-08T00:04:10;100909.88;;;16.74;nan
37694;BME280;23531;50.122;8.644;2023-05-08T00:06:12;100906.09;;;16.75;nan
37694;BME280;23531;50.122;8.644;2023-05-08T00:08:13;100902.78;;;16.73;nan
37694;BME280;23531;50.122;8.644;2023-05-08T00:10:14;100902.19;;;16.59;nan
37694;BME280;23531;50.122;8.644;2023-05-08T00:12:17;100904.91;;;16.59;nan
37694;BME280;23531;50.122;8.644;2023-05-08T00:14:18;100898.69;;;16.47;nan
37694;BME280;23531;50.122;8.644;2023-05-08T00:16:19;100896.31;;;16.51;nan
37694;BME280;23531;50.122;8.644;2023-05-08T00:18:21;100902.91;;;16.55;nan
37694;BME280;23531;50.122;8.644;2023-05-08T00:20:22;100905.28;;;16.63;nan
37694;BME280;23531;50.122;8.644;2023-05-08T00:22:23;100902.78;;;16.73;nan
37694;BME280;23531;50.122;8.644;2023-05-08T00:24:24;100902.09;;;16.78;nan
37694;BME280;23531;50.122;8.644;2023-05-08T00:26:26;100898.66;;;16.70;nan
37694;BME280;23531;50.122;8.644;2023-05-08T00:28:28;100905.41;;;16.45;nan
37694;BME280;23531;50.122;8.644;2023-05-08T00:30:29;100899.50;;;16.48;nan
37694;BME280;23531;50.122;8.644;2023-05-08T00:32:31;100908.00;;;16.40;nan
37694;BME280;23531;50.122;8.644;2023-05-08T00:34:32;100904.34;;;16.46;nan
37694;BME280;23531;50.122;8.644;2023-05-08T00:38:35;100898.41;;;16.49;nan
37694;BME280;23531;50.122;8.644;2023-05-08T00:40:36;100900.81;;;16.45;nan
37694;BME280;23531;50.122;8.644;2023-05-08T00:42:37;100900.56;;;16.47;nan
37694;BME280;23531;50.122;8.644;2023-05-08T00:44:40;100901.03;;;16.44;nan
37694;BME280;23531;50.122;8.644;2023-05-08T00:46:41;100905.63;;;16.31;nan
37694;BME280;23531;50.122;8.644;2023-05-08T00:48:43;100904.00;;;16.30;nan
37694;BME280;23531;50.122;8.644;2023-05-08T00:50:45;100896.44;;;16.32;nan
37694;BME280;23531;50.122;8.644;2023-05-08T00:52:47;100897.38;;;16.38;nan
37694;BME280;23531;50.122;8.644;2023-05-08T00:54:50;100898.78;;;16.41;nan
37694;BME280;23531;50.122;8.644;2023-05-08T00:56:51;100904.34;;;16.34;nan
37694;BME280;23531;50.122;8.644;2023-05-08T00:58:53;100910.47;;;16.29;nan
37694;BME280;23531;50.122;8.644;2023-05-08T01:00:55;100905.03;;;16.29;nan
37694;BME280;23531;50.122;8.644;2023-05-08T01:02:58;100911.16;;;16.37;nan
37694;BME280;23531;50.122;8.644;2023-05-08T01:05:00;100904.69;;;16.38;nan
37694;BME280;23531;50.122;8.644;2023-05-08T01:07:02;100900.44;;;16.18;nan
37694;BME280;23531;50.122;8.644;2023-05-08T01:09:04;100910.69;;;16.28;nan
37694;BME280;23531;50.122;8.644;2023-05-08T01:11:08;100906.34;;;16.39;nan
37694;BME280;23531;50.122;8.644;2023-05-08T01:13:13;100908.94;;;16.33;nan
37694;BME280;23531;50.122;8.644;2023-05-08T01:15:20;100912.72;;;16.32;nan
37694;BME280;23531;50.122;8.644;2023-05-08T01:17:29;100910.25;;;16.31;nan
37694;BME280;23531;50.122;8.644;2023-05-08T01:19:39;100922.97;;;16.19;nan
37694;BME280;23531;50.122;8.644;2023-05-08T01:21:44;100915.81;;;16.36;nan
37694;BME280;23531;50.122;8.644;2023-05-08T01:23:57;100921.22;;;16.24;nan
37694;BME280;23531;50.122;8.644;2023-05-08T01:26:11;100922.06;;;16.25;nan
37694;BME280;23531;50.122;8.644;2023-05-08T01:28:26;100915.41;;;16.09;nan
37694;BME280;23531;50.122;8.644;2023-05-08T01:30:46;100922.13;;;16.07;nan
37694;BME280;23531;50.122;8.644;2023-05-08T01:32:55;100927.44;;;15.90;nan
37694;BME280;23531;50.122;8.644;2023-05-08T01:34:59;100920.53;;;15.76;nan
37694;BME280;23531;50.122;8.644;2023-05-08T01:37:04;100927.63;;;15.77;nan
37694;BME280;23531;50.122;8.644;2023-05-08T01:39:09;100927.44;;;15.60;nan
37694;BME280;23531;50.122;8.644;2023-05-08T01:41:15;100923.00;;;15.66;nan
37694;BME280;23531;50.122;8.644;2023-05-08T01:43:18;100928.69;;;15.76;nan
37694;BME280;23531;50.122;8.644;2023-05-08T01:45:25;100930.44;;;15.82;nan
37694;BME280;23531;50.122;8.644;2023-05-08T01:47:29;100930.84;;;15.97;nan
37694;BME280;23531;50.122;8.644;2023-05-08T01:49:35;100938.63;;;16.05;nan
37694;BME280;23531;50.122;8.644;2023-05-08T01:51:39;100932.63;;;16.03;nan
37694;BME280;23531;50.122;8.644;2023-05-08T01:53:43;100933.09;;;16.00;nan
37694;BME280;23531;50.122;8.644;2023-05-08T01:55:46;100935.81;;;16.00;nan
37694;BME280;23531;50.122;8.644;2023-05-08T01:57:49;100935.94;;;16.05;nan
37694;BME280;23531;50.122;8.644;2023-05-08T01:59:52;100941.84;;;16.02;nan
37694;BME280;23531;50.122;8.644;2023-05-08T02:01:54;100944.06;;;16.05;nan
37694;BME280;23531;50.122;8.644;2023-05-08T02:03:58;100939.59;;;15.99;nan
37694;BME280;23531;50.122;8.644;2023-05-08T02:06:01;100951.97;;;16.07;nan
37694;BME280;23531;50.122;8.644;2023-05-08T02:08:04;100940.03;;;15.96;nan
37694;BME280;23531;50.122;8.644;2023-05-08T02:10:07;100948.78;;;15.98;nan
37694;BME280;23531;50.122;8.644;2023-05-08T02:12:10;100952.09;;;16.00;nan
37694;BME280;23531;50.122;8.644;2023-05-08T02:14:12;100951.22;;;15.88;nan
37694;BME280;23531;50.122;8.644;2023-05-08T02:16:13;100946.63;;;15.88;nan
37694;BME280;23531;50.122;8.644;2023-05-08T02:18:15;100946.03;;;15.86;nan
37694;BME280;23531;50.122;8.644;2023-05-08T02:20:19;100957.97;;;15.97;nan
37694;BME280;23531;50.122;8.644;2023-05-08T02:22:22;100955.13;;;15.92;nan
37694;BME280;23531;50.122;8.644;2023-05-08T02:24:24;100949.69;;;15.92;nan
37694;BME280;23531;50.122;8.644;2023-05-08T02:26:25;100952.75;;;15.84;nan
37694;BME280;23531;50.122;8.644;2023-05-08T02:28:27;100953.19;;;15.81;nan
37694;BME280;23531;50.122;8.644;2023-05-08T02:30:29;100949.53;;;15.75;nan
37694;BME280;23531;50.122;8.644;2023-05-08T02:32:31;100947.50;;;15.71;nan
37694;BME280;23531;50.122;8.644;2023-05-08T02:34:32;100951.00;;;15.59;nan
37694;BME280;23531;50.122;8.644;2023-05-08T02:36:35;100955.97;;;15.63;nan
37694;BME280;23531;50.122;8.644;2023-05-08T02:38:38;100958.47;;;15.64;nan
37694;BME280;23531;50.122;8.644;2023-05-08T02:40:43;100963.31;;;15.74;nan
37694;BME280;23531;50.122;8.644;2023-05-08T02:42:45;100956.63;;;15.76;nan
37694;BME280;23531;50.122;8.644;2023-05-08T02:44:46;100962.41;;;15.80;nan
37694;BME280;23531;50.122;8.644;2023-05-08T02:46:48;100961.06;;;15.71;nan
37694;BME280;23531;50.122;8.644;2023-05-08T02:48:54;100963.22;;;15.69;nan
37694;BME280;23531;50.122;8.644;2023-05-08T02:50:57;100972.50;;;15.73;nan
37694;BME280;23531;50.122;8.644;2023-05-08T02:53:01;100969.31;;;15.64;nan
37694;BME280;23531;50.122;8.644;2023-05-08T02:55:06;100970.69;;;15.55;nan
37694;BME280;23531;50.122;8.644;2023-05-08T02:57:13;100971.53;;;15.55;nan
37694;BME280;23531;50.122;8.644;2023-05-08T02:59:19;100975.47;;;15.53;nan
37694;BME280;23531;50.122;8.644;2023-05-08T03:01:23;100973.66;;;15.47;nan
37694;BME280;23531;50.122;8.644;2023-05-08T03:03:26;100973.19;;;15.56;nan
37694;BME280;23531;50.122;8.644;2023-05-08T03:05:30;100974.00;;;15.57;nan
37694;BME280;23531;50.122;8.644;2023-05-08T03:07:32;100973.19;;;15.56;nan
37694;BME280;23531;50.122;8.644;2023-05-08T03:09:38;100972.38;;;15.49;nan
37694;BME280;23531;50.122;8.644;2023-05-08T03:11:43;100972.38;;;15.49;nan
37694;BME280;23531;50.122;8.644;2023-05-08T03:13:45;100966.91;;;15.38;nan
37694;BME280;23531;50.122;8.644;2023-05-08T03:15:50;100970.00;;;15.41;nan
37694;BME280;23531;50.122;8.644;2023-05-08T03:17:54;100960.25;;;15.22;nan
37694;BME280;23531;50.122;8.644;2023-05-08T03:19:57;100966.41;;;15.29;nan
37694;BME280;23531;50.122;8.644;2023-05-08T03:22:00;100957.66;;;15.27;nan
37694;BME280;23531;50.122;8.644;2023-05-08T03:24:03;100965.03;;;15.38;nan
37694;BME280;23531;50.122;8.644;2023-05-08T03:26:06;100970.44;;;15.38;nan
37694;BME280;23531;50.122;8.644;2023-05-08T03:28:09;100968.88;;;15.31;nan
37694;BME280;23531;50.122;8.644;2023-05-08T03:30:11;100963.31;;;15.25;nan
37694;BME280;23531;50.122;8.644;2023-05-08T03:32:13;100960.53;;;15.32;nan
37694;BME280;23531;50.122;8.644;2023-05-08T03:34:14;100977.63;;;15.33;nan
37694;BME280;23531;50.122;8.644;2023-05-08T03:36:17;100970.78;;;15.30;nan
37694;BME280;23531;50.122;8.644;2023-05-08T03:38:19;100965.47;;;15.35;nan
37694;BME280;23531;50.122;8.644;2023-05-08T03:40:21;100968.34;;;15.40;nan
37694;BME280;23531;50.122;8.644;2023-05-08T03:42:22;100966.75;;;15.51;nan
37694;BME280;23531;50.122;8.644;2023-05-08T03:44:26;100966.47;;;15.41;nan
37694;BME280;23531;50.122;8.644;2023-05-08T03:46:28;100970.81;;;15.42;nan
37694;BME280;23531;50.122;8.644;2023-05-08T03:48:30;100972.38;;;15.49;nan
37694;BME280;23531;50.122;8.644;2023-05-08T03:50:33;100972.84;;;15.46;nan
37694;BME280;23531;50.122;8.644;2023-05-08T03:52:34;100972.09;;;15.39;nan
37694;BME280;23531;50.122;8.644;2023-05-08T03:54:36;100972.44;;;15.31;nan
37694;BME280;23531;50.122;8.644;2023-05-08T03:56:37;100975.44;;;15.23;nan
37694;BME280;23531;50.122;8.644;2023-05-08T03:58:40;100979.00;;;15.23;nan
37694;BME280;23531;50.122;8.644;2023-05-08T04:00:53;100980.41;;;15.26;nan
37694;BME280;23531;50.122;8.644;2023-05-08T04:03:01;100984.03;;;15.20;nan
37694;BME280;23531;50.122;8.644;2023-05-08T04:05:16;100986.41;;;15.28;nan
37694;BME280;23531;50.122;8.644;2023-05-08T04:07:22;100985.59;;;15.27;nan
37694;BME280;23531;50.122;8.644;2023-05-08T04:09:26;100990.41;;;15.25;nan
37694;BME280;23531;50.122;8.644;2023-05-08T04:11:29;100990.34;;;15.32;nan
37694;BME280;23531;50.122;8.644;2023-05-08T04:13:33;100994.50;;;15.35;nan
37694;BME280;23531;50.122;8.644;2023-05-08T04:15:37;100995.16;;;15.30;nan
37694;BME280;23531;50.122;8.644;2023-05-08T04:17:41;100998.63;;;15.19;nan
37694;BME280;23531;50.122;8.644;2023-05-08T04:19:44;100993.66;;;15.16;nan
37694;BME280;23531;50.122;8.644;2023-05-08T04:21:46;100998.00;;;15.17;nan
37694;BME280;23531;50.122;8.644;2023-05-08T04:23:48;100991.84;;;15.10;nan
37694;BME280;23531;50.122;8.644;2023-05-08T04:25:50;100998.25;;;15.15;nan
37694;BME280;23531;50.122;8.644;2023-05-08T04:27:52;100988.53;;;15.26;nan
37694;BME280;23531;50.122;8.644;2023-05-08T04:29:55;101000.34;;;15.32;nan
37694;BME280;23531;50.122;8.644;2023-05-08T04:31:56;100992.66;;;15.29;nan
37694;BME280;23531;50.122;8.644;2023-05-08T04:34:00;101001.03;;;15.27;nan
37694;BME280;23531;50.122;8.644;2023-05-08T04:36:02;100990.06;;;15.22;nan
37694;BME280;23531;50.122;8.644;2023-05-08T04:38:04;100997.56;;;15.20;nan
37694;BME280;23531;50.122;8.644;2023-05-08T04:40:06;100995.00;;;15.25;nan
37694;BME280;23531;50.122;8.644;2023-05-08T04:42:07;100991.53;;;15.18;nan
37694;BME280;23531;50.122;8.644;2023-05-08T04:44:08;100995.31;;;15.17;nan
37694;BME280;23531;50.122;8.644;2023-05-08T04:46:10;100997.97;;;15.23;nan
37694;BME280;23531;50.122;8.644;2023-05-08T04:48:11;100995.38;;;15.29;nan
37694;BME280;23531;50.122;8.644;2023-05-08T04:50:14;100992.75;;;15.22;nan
37694;BME280;23531;50.122;8.644;2023-05-08T04:52:15;100997.78;;;14.82;nan
37694;BME280;23531;50.122;8.644;2023-05-08T04:54:16;101001.50;;;14.63;nan
37694;BME280;23531;50.122;8.644;2023-05-08T04:56:18;101009.41;;;14.64;nan
37694;BME280;23531;50.122;8.644;2023-05-08T04:58:19;101004.59;;;14.66;nan
37694;BME280;23531;50.122;8.644;2023-05-08T05:00:21;101008.28;;;14.72;nan
37694;BME280;23531;50.122;8.644;2023-05-08T05:02:24;101009.00;;;14.61;nan
37694;BME280;23531;50.122;8.644;2023-05-08T05:04:25;101007.94;;;14.86;nan
37694;BME280;23531;50.122;8.644;2023-05-08T05:06:27;101020.13;;;14.96;nan
37694;BME280;23531;50.122;8.644;2023-05-08T05:08:29;101012.75;;;15.03;nan
37694;BME280;23531;50.122;8.644;2023-05-08T05:10:30;101012.91;;;15.08;nan
37694;BME280;23531;50.122;8.644;2023-05-08T05:12:31;101019.00;;;15.03;nan
37694;BME280;23531;50.122;8.644;2023-05-08T05:14:33;101030.06;;;15.02;nan
37694;BME280;23531;50.122;8.644;2023-05-08T05:16:34;101031.78;;;14.96;nan
37694;BME280;23531;50.122;8.644;2023-05-08T05:18:35;101024.88;;;15.00;nan
37694;BME280;23531;50.122;8.644;2023-05-08T05:20:37;101026.97;;;14.98;nan
37694;BME280;23531;50.122;8.644;2023-05-08T05:22:39;101034.78;;;14.88;nan
37694;BME280;23531;50.122;8.644;2023-05-08T05:24:40;101035.84;;;14.87;nan
37694;BME280;23531;50.122;8.644;2023-05-08T05:26:42;101036.91;;;14.86;nan
37694;BME280;23531;50.122;8.644;2023-05-08T05:28:43;101039.81;;;14.84;nan
37694;BME280;23531;50.122;8.644;2023-05-08T05:30:45;101030.34;;;14.94;nan
37694;BME280;23531;50.122;8.644;2023-05-08T05:32:46;101037.84;;;14.73;nan
37694;BME280;23531;50.122;8.644;2023-05-08T05:34:47;101034.56;;;14.89;nan
37694;BME280;23531;50.122;8.644;2023-05-08T05:36:49;101042.44;;;14.91;nan
37694;BME280;23531;50.122;8.644;2023-05-08T05:38:51;101039.81;;;14.84;nan
37694;BME280;23531;50.122;8.644;2023-05-08T05:40:53;101044.56;;;14.89;nan
37694;BME280;23531;50.122;8.644;2023-05-08T05:42:54;101049.81;;;14.84;nan
37694;BME280;23531;50.122;8.644;2023-05-08T05:44:55;101049.91;;;14.77;nan
37694;BME280;23531;50.122;8.644;2023-05-08T05:46:56;101053.47;;;14.71;nan
37694;BME280;23531;50.122;8.644;2023-05-08T05:48:57;101054.47;;;14.77;nan
37694;BME280;23531;50.122;8.644;2023-05-08T05:50:59;101057.41;;;14.75;nan
37694;BME280;23531;50.122;8.644;2023-05-08T05:53:00;101053.47;;;14.71;nan
37694;BME280;23531;50.122;8.644;2023-05-08T05:55:03;101059.28;;;14.75;nan
37694;BME280;23531;50.122;8.644;2023-05-08T05:57:05;101058.00;;;14.77;nan
37694;BME280;23531;50.122;8.644;2023-05-08T05:59:06;101062.09;;;14.86;nan
37694;BME280;23531;50.122;8.644;2023-05-08T06:01:07;101061.41;;;14.91;nan
37694;BME280;23531;50.122;8.644;2023-05-08T06:03:09;101058.16;;;14.82;nan
37694;BME280;23531;50.122;8.644;2023-05-08T06:05:10;101056.50;;;14.81;nan
37694;BME280;23531;50.122;8.644;2023-05-08T06:07:12;101058.13;;;14.89;nan
37694;BME280;23531;50.122;8.644;2023-05-08T06:09:13;101057.34;;;14.82;nan
37694;BME280;23531;50.122;8.644;2023-05-08T06:11:16;101056.91;;;14.85;nan
37694;BME280;23531;50.122;8.644;2023-05-08T06:13:18;101064.91;;;14.73;nan
37694;BME280;23531;50.122;8.644;2023-05-08T06:15:20;101060.38;;;14.67;nan
37694;BME280;23531;50.122;8.644;2023-05-08T06:17:21;101067.44;;;14.68;nan
37694;BME280;23531;50.122;8.644;2023-05-08T06:19:22;101071.59;;;14.71;nan
37694;BME280;23531;50.122;8.644;2023-05-08T06:21:24;101065.41;;;14.64;nan
37694;BME280;23531;50.122;8.644;2023-05-08T06:23:25;101070.41;;;14.67;nan
37694;BME280;23531;50.122;8.644;2023-05-08T06:25:26;101070.41;;;14.67;nan
37694;BME280;23531;50.122;8.644;2023-05-08T06:27:29;101075.81;;;14.67;nan
37694;BME280;23531;50.122;8.644;2023-05-08T06:29:30;101080.59;;;14.65;nan
37694;BME280;23531;50.122;8.644;2023-05-08T06:31:32;101085.97;;;14.71;nan
37694;BME280;23531;50.122;8.644;2023-05-08T06:33:33;101086.50;;;14.80;nan
37694;BME280;23531;50.122;8.644;2023-05-08T06:35:34;101082.31;;;14.84;nan
37694;BME280;23531;50.122;8.644;2023-05-08T06:37:36;101077.94;;;14.58;nan
37694;BME280;23531;50.122;8.644;2023-05-08T06:39:37;101079.94;;;14.69;nan
37694;BME280;23531;50.122;8.644;2023-05-08T06:41:39;101084.97;;;14.66;nan
37694;BME280;23531;50.122;8.644;2023-05-08T06:43:41;101085.81;;;14.66;nan
37694;BME280;23531;50.122;8.644;2023-05-08T06:45:43;101082.41;;;14.71;nan
37694;BME280;23531;50.122;8.644;2023-05-08T06:47:44;101084.25;;;14.77;nan
37694;BME280;23531;50.122;8.644;2023-05-08T06:49:45;101083.66;;;14.75;nan
37694;BME280;23531;50.122;8.644;2023-05-08T06:51:46;101088.66;;;14.71;nan
37694;BME280;23531;50.122;8.644;2023-05-08T06:53:48;101082.81;;;14.74;nan
37694;BME280;23531;50.122;8.644;2023-05-08T06:55:50;101091.56;;;14.76;nan
37694;BME280;23531;50.122;8.644;2023-05-08T06:57:51;101086.03;;;14.89;nan
37694;BME280;23531;50.122;8.644;2023-05-08T06:59:53;101081.03;;;14.86;nan
37694;BME280;23531;50.122;8.644;2023-05-08T07:01:55;101079.28;;;14.99;nan
37694;BME280;23531;50.122;8.644;2023-05-08T07:03:56;101079.41;;;15.04;nan
37694;BME280;23531;50.122;8.644;2023-05-08T07:05:57;101076.78;;;14.97;nan
37694;BME280;23531;50.122;8.644;2023-05-08T07:07:58;101081.75;;;15.00;nan
37694;BME280;23531;50.122;8.644;2023-05-08T07:10:00;101081.03;;;14.86;nan
37694;BME280;23531;50.122;8.644;2023-05-08T07:12:01;101080.00;;;14.63;nan
37694;BME280;23531;50.122;8.644;2023-05-08T07:14:02;101078.00;;;14.76;nan
37694;BME280;23531;50.122;8.644;2023-05-08T07:16:08;101083.31;;;14.89;nan
37694;BME280;23531;50.122;8.644;2023-05-08T07:18:10;101077.22;;;14.94;nan
37694;BME280;23531;50.122;8.644;2023-05-08T07:20:11;101084.38;;;14.88;nan
37694;BME280;23531;50.122;8.644;2023-05-08T07:22:12;101083.34;;;14.83;nan
37694;BME280;23531;50.122;8.644;2023-05-08T07:24:13;101084.41;;;14.82;nan
37694;BME280;23531;50.122;8.644;2023-05-08T07:26:15;101081.66;;;14.88;nan
37694;BME280;23531;50.122;8.644;2023-05-08T07:28:16;101081.03;;;14.86;nan
37694;BME280;23531;50.122;8.644;2023-05-08T07:30:18;101086.47;;;14.86;nan
37694;BME280;23531;50.122;8.644;2023-05-08T07:32:20;101079.38;;;14.85;nan
37694;BME280;23531;50.122;8.644;2023-05-08T07:34:21;101087.28;;;14.87;nan
37694;BME280;23531;50.122;8.644;2023-05-08T07:36:23;101086.91;;;14.83;nan
37694;BME280;23531;50.122;8.644;2023-05-08T07:38:24;101092.31;;;14.83;nan
37694;BME280;23531;50.122;8.644;2023-05-08T07:40:25;101080.22;;;14.86;nan
37694;BME280;23531;50.122;8.644;2023-05-08T07:42:26;101085.94;;;14.96;nan
37694;BME280;23531;50.122;8.644;2023-05-08T07:44:29;101083.03;;;14.98;nan
37694;BME280;23531;50.122;8.644;2023-05-08T07:46:31;101081.06;;;15.05;nan
37694;BME280;23531;50.122;8.644;2023-05-08T07:48:33;101087.09;;;15.07;nan
37694;BME280;23531;50.122;8.644;2023-05-08T07:50:35;101082.25;;;14.90;nan
37694;BME280;23531;50.122;8.644;2023-05-08T07:52:36;101088.81;;;15.01;nan
37694;BME280;23531;50.122;8.644;2023-05-08T07:54:37;101082.06;;;15.10;nan
37694;BME280;23531;50.122;8.644;2023-05-08T07:56:39;101085.03;;;15.02;nan
37694;BME280;23531;50.122;8.644;2023-05-08T07:58:40;101085.28;;;15.01;nan
37694;BME280;23531;50.122;8.644;2023-05-08T08:00:41;101088.00;;;15.01;nan
37694;BME280;23531;50.122;8.644;2023-05-08T08:02:43;101091.75;;;15.00;nan
37694;BME280;23531;50.122;8.644;2023-05-08T08:04:46;101092.06;;;15.10;nan
37694;BME280;23531;50.122;8.644;2023-05-08T08:06:48;101096.16;;;15.19;nan
37694;BME280;23531;50.122;8.644;2023-05-08T08:08:49;101089.06;;;15.18;nan
37694;BME280;23531;50.122;8.644;2023-05-08T08:10:50;101091.16;;;15.16;nan
37694;BME280;23531;50.122;8.644;2023-05-08T08:12:52;101091.16;;;15.16;nan
37694;BME280;23531;50.122;8.644;2023-05-08T08:14:53;101084.09;;;15.15;nan
37694;BME280;23531;50.122;8.644;2023-05-08T08:16:55;101085.94;;;14.96;nan
37694;BME280;23531;50.122;8.644;2023-05-08T08:18:56;101074.41;;;14.82;nan
37694;BME280;23531;50.122;8.644;2023-05-08T08:20:58;101086.28;;;14.81;nan
37694;BME280;23531;50.122;8.644;2023-05-08T08:23:00;101081.41;;;14.90;nan
37694;BME280;23531;50.122;8.644;2023-05-08T08:25:01;101085.50;;;14.99;nan
37694;BME280;23531;50.122;8.644;2023-05-08T08:27:02;101075.94;;;14.97;nan
37694;BME280;23531;50.122;8.644;2023-05-08T08:29:04;101078.88;;;14.95;nan
37694;BME280;23531;50.122;8.644;2023-05-08T08:31:05;101083.03;;;14.98;nan
37694;BME280;23531;50.122;8.644;2023-05-08T08:33:07;101079.38;;;15.10;nan
37694;BME280;23531;50.122;8.644;2023-05-08T08:35:08;101075.31;;;15.19;nan
37694;BME280;23531;50.122;8.644;2023-05-08T08:37:11;101077.72;;;15.27;nan
37694;BME280;23531;50.122;8.644;2023-05-08T08:39:12;101081.72;;;15.43;nan
37694;BME280;23531;50.122;8.644;2023-05-08T08:41:13;101074.09;;;15.52;nan
37694;BME280;23531;50.122;8.644;2023-05-08T08:43:14;101074.78;;;15.47;nan
37694;BME280;23531;50.122;8.644;2023-05-08T08:45:16;101080.94;;;15.36;nan
37694;BME280;23531;50.122;8.644;2023-05-08T08:47:17;101077.50;;;15.29;nan
37694;BME280;23531;50.122;8.644;2023-05-08T08:49:21;101084.34;;;15.32;nan
37694;BME280;23531;50.122;8.644;2023-05-08T08:51:25;101083.38;;;15.44;nan
37694;BME280;23531;50.122;8.644;2023-05-08T08:53:29;101092.69;;;15.48;nan
37694;BME280;23531;50.122;8.644;2023-05-08T08:55:34;101096.63;;;15.52;nan
37694;BME280;23531;50.122;8.644;2023-05-08T08:57:38;101095.72;;;15.58;nan
37694;BME280;23531;50.122;8.644;2023-05-08T08:59:44;101099.09;;;15.54;nan
37694;BME280;23531;50.122;8.644;2023-05-08T09:01:46;101094.31;;;15.56;nan
37694;BME280;23531;50.122;8.644;2023-05-08T09:03:48;101097.25;;;15.54;nan
37694;BME280;23531;50.122;8.644;2023-05-08T09:05:49;101095.38;;;15.55;nan
37694;BME280;23531;50.122;8.644;2023-05-08T09:07:52;101089.72;;;15.56;nan
37694;BME280;23531;50.122;8.644;2023-05-08T09:09:55;101102.03;;;15.52;nan
37694;BME280;23531;50.122;8.644;2023-05-08T09:11:56;101100.72;;;15.61;nan
37694;BME280;23531;50.122;8.644;2023-05-08T09:13:58;101104.94;;;15.57;nan
37694;BME280;23531;50.122;8.644;2023-05-08T09:15:59;101103.09;;;15.51;nan
37694;BME280;23531;50.122;8.644;2023-05-08T09:18:00;101104.34;;;15.55;nan
37694;BME280;23531;50.122;8.644;2023-05-08T09:20:02;101105.19;;;15.49;nan
37694;BME280;23531;50.122;8.644;2023-05-08T09:22:03;101098.91;;;15.55;nan
37694;BME280;23531;50.122;8.644;2023-05-08T09:24:08;101101.88;;;15.47;nan
37694;BME280;23531;50.122;8.644;2023-05-08T09:26:11;101100.59;;;15.50;nan
37694;BME280;23531;50.122;8.644;2023-05-08T09:28:26;101108.22;;;15.59;nan
37694;BME280;23531;50.122;8.644;2023-05-08T09:30:28;101098.81;;;15.62;nan
37694;BME280;23531;50.122;8.644;2023-05-08T09:32:29;101103.63;;;15.60;nan
37694;BME280;23531;50.122;8.644;2023-05-08T09:34:31;101110.38;;;15.51;nan
37694;BME280;23531;50.122;8.644;2023-05-08T09:36:34;101105.78;;;15.51;nan
37694;BME280;23531;50.122;8.644;2023-05-08T09:38:36;101111.16;;;15.58;nan
37694;BME280;23531;50.122;8.644;2023-05-08T09:40:37;101118.03;;;15.60;nan
37694;BME280;23531;50.122;8.644;2023-05-08T09:42:40;101118.84;;;15.61;nan
37694;BME280;23531;50.122;8.644;2023-05-08T09:44:45;101116.75;;;15.63;nan
37694;BME280;23531;50.122;8.644;2023-05-08T09:46:46;101123.09;;;15.57;nan
37694;BME280;23531;50.122;8.644;2023-05-08T09:48:49;101123.59;;;15.66;nan
37694;BME280;23531;50.122;8.644;2023-05-08T09:50:53;101123.66;;;15.59;nan
37694;BME280;23531;50.122;8.644;2023-05-08T09:53:05;101125.38;;;15.53;nan
37694;BME280;23531;50.122;8.644;2023-05-08T09:55:07;101123.50;;;15.54;nan
37694;BME280;23531;50.122;8.644;2023-05-08T09:57:11;101126.63;;;15.57;nan
37694;BME280;23531;50.122;8.644;2023-05-08T09:59:23;101125.81;;;15.57;nan
37694;BME280;23531;50.122;8.644;2023-05-08T10:01:29;101129.47;;;15.63;nan
37694;BME280;23531;50.122;8.644;2023-05-08T10:03:46;101120.44;;;15.69;nan
37694;BME280;23531;50.122;8.644;2023-05-08T10:05:48;101121.19;;;15.76;nan
37694;BME280;23531;50.122;8.644;2023-05-08T10:07:49;101127.06;;;15.73;nan
37694;BME280;23531;50.122;8.644;2023-05-08T10:09:56;101128.19;;;15.65;nan
37694;BME280;23531;50.122;8.644;2023-05-08T10:11:57;101128.59;;;15.69;nan
37694;BME280;23531;50.122;8.644;2023-05-08T10:13:59;101131.28;;;15.69;nan
37694;BME280;23531;50.122;8.644;2023-05-08T10:16:01;101118.19;;;15.66;nan
37694;BME280;23531;50.122;8.644;2023-05-08T10:18:03;101121.56;;;15.79;nan
37694;BME280;23531;50.122;8.644;2023-05-08T10:20:06;101127.47;;;15.51;nan
37694;BME280;23531;50.122;8.644;2023-05-08T10:22:07;101118.75;;;15.31;nan
37694;BME280;23531;50.122;8.644;2023-05-08T10:24:13;101123.53;;;15.29;nan
37694;BME280;23531;50.122;8.644;2023-05-08T10:26:15;101115.59;;;15.52;nan
37694;BME280;23531;50.122;8.644;2023-05-08T10:28:21;101122.47;;;15.73;nan
37694;BME280;23531;50.122;8.644;2023-05-08T10:30:24;101109.44;;;15.64;nan
37694;BME280;23531;50.122;8.644;2023-05-08T10:32:27;101112.38;;;15.62;nan
37694;BME280;23531;50.122;8.644;2023-05-08T10:34:31;101109.91;;;15.79;nan
37694;BME280;23531;50.122;8.644;2023-05-08T10:36:33;101108.19;;;15.96;nan
37694;BME280;23531;50.122;8.644;2023-05-08T10:38:35;101108.03;;;16.09;nan
37694;BME280;23531;50.122;8.644;2023-05-08T10:40:37;101111.34;;;16.11;nan
37694;BME280;23531;50.122;8.644;2023-05-08T10:42:38;101116.00;;;16.04;nan
37694;BME280;23531;50.122;8.644;2023-05-08T10:44:40;101114.50;;;16.08;nan
37694;BME280;23531;50.122;8.644;2023-05-08T10:46:43;101114.34;;;16.03;nan
37694;BME280;23531;50.122;8.644;2023-05-08T10:48:59;101109.69;;;16.10;nan
37694;BME280;23531;50.122;8.644;2023-05-08T10:51:09;101115.63;;;16.19;nan
37694;BME280;23531;50.122;8.644;2023-05-08T10:53:15;101121.09;;;16.30;nan
37694;BME280;23531;50.122;8.644;2023-05-08T10:55:21;101108.56;;;16.29;nan
37694;BME280;23531;50.122;8.644;2023-05-08T10:57:23;101105.78;;;16.36;nan
37694;BME280;23531;50.122;8.644;2023-05-08T10:59:24;101111.44;;;16.34;nan